Murray, KY

5:45 PM CDT on March 30, 2017 (GMT -0500)
Kyle-Oakley | | Change Station

Elev 577 ft 36.66 °N, 88.37 °W | Updated 50 minutes ago

Mostly Cloudy
Mostly Cloudy
63 °F
Feels Like 63 °F
N
23
Wind Variable Wind from SW
Gusts 36 mph

Today
High -- | Low -- °F
--% Chance of Precip.
Yesterday
High -- | Low -- °F
Precip. -- in
Pressure 29.58 in
Visibility 10.0 miles
Clouds Few 3000 ft
Scattered Clouds 4400 ft
Mostly Cloudy 6000 ft
Dew Point 61 °F
Humidity 94%
Rainfall 0.01 in
Snow Depth Not available.
6:41 AM 7:14 PM
Waxing Crescent, 11% visible
METAR KCEY 302155Z AUTO 23020G31KT 10SM FEW030 SCT044 BKN060 17/16 A2958 RMK AO1 P0001
Pressure 29.58 in
Visibility 10.0 miles
Clouds Few 3000 ft
Scattered Clouds 4400 ft
Mostly Cloudy 6000 ft
Dew Point 61 °F
Humidity 94%
Rainfall 0.01 in
Snow Depth Not available.
6:41 AM 7:14 PM
Waxing Crescent, 11% visible
METAR KCEY 302155Z AUTO 23020G31KT 10SM FEW030 SCT044 BKN060 17/16 A2958 RMK AO1 P0001

Get Your Daily Forecast Email!

Thanks for signing up!

Be on the lookout for a verification email in your inbox.

You'll start receiving severe weather alerts in your inbox..

×

10-Day Weather Forecast

Almanac

Astronomy

Mar. 30, 2017 Rise Set
Actual Time
Civil Twilight
Nautical Twilight
Astronomical Twilight
Moon
Length of Visible Light
Length of Day
Tomorrow will be .
, % of the Moon is Illuminated

Today's Extremes

State Highs State Lows

Community

WunderPhotos

Upload Photos

1,962,540 photos uploaded!

WunderBlog® & News

Nearby

Air Quality

  Air Quality AQ Index Pollutant
Not available.

Snow Depth

Station Depth Elevation

Earthquake Activity

City Distance Mag. Time & Date
Minimum magnitude displayed is 2.5.

Earthquake Activity

City Distance Mag. Time & Date
Minimum magnitude displayed is 2.5.

Coastal Water Temperatures

Place Temperature

Stations

Nearby Weather Stations

Station Location Temp. Windchill Dew Point Humidity Wind Precip. Elev Updated Type
                   

Watches & Warnings

Severe Thunderstorm Watch
Issued: 5:43 PM CDT Mar. 30, 2017 – National Weather Service

Severe Thunderstorm Watch 103 remains in effect until 800 PM CDT
for the following locations


KY
. Kentucky counties included are

Caldwell Calloway Christian
Hopkins Lyon McLean
Muhlenberg Todd Trigg
Webster


Special Weather Statement
Issued: 5:13 PM CDT Mar. 30, 2017 – National Weather Service

... Special Weather Statement...

At 512 PM CDT, Doppler radar was tracking a strong thunderstorm near
Murray, moving northeast at 45 mph.

Half inch hail and winds in excess of 30 mph will be possible with
this storm.

Locations impacted include...
Canton, New Concord and Linton.

Lat... Lon 3657 8830 3675 8813 3675 8811 3676 8811
      3688 8800 3667 8781 3665 8785 3667 8786
      3668 8807 3666 8807 3664 8806 3657 8804
      3650 8819 3650 8822
time... Mot... loc 2212z 227deg 37kt 3656 8821

Db